^^
Grace C. Lehan Memorial Weather Station Historical Data
Daily Summary for July 25, 2021 Units:  English    Metric   Both
Daily Weekly Monthly Yearly
  High: Low: Average:
Temperature: 79.8 °F 67.3 °F 72.3 °F
Dew Point: 72.9 °F 63.8 °F 68.2 °F
Humidity: 92.1% 78% 87%
Wind Speed: 1.9mph 0mph 0.1mph
Wind Gust: 11mph - -
Wind- - SW
Pressure: 29.98 in 29.79 in -
Precipitation: 0.10 in    
 
 
Tabular Data for July 25, 2021
Time Temperature Dew Point Pressure Wind Wind Speed Wind Gust Humidity Rainfall Rate (Hourly) solar
00:04 70.8 °F 64.3 °F 29.98 in Calm     80% 0.00 in 0 W/m2
00:09 70.7 °F 64.2 °F 29.98 in Calm     80% 0.00 in 0 W/m2
00:14 70.7 °F 64.3 °F 29.98 in Calm     80.2% 0.00 in 0 W/m2
00:19 70.6 °F 64.1 °F 29.98 in Calm     80% 0.00 in 0 W/m2
00:24 70.4 °F 64.1 °F 29.98 in Calm     80.3% 0.00 in 0 W/m2
00:29 70.4 °F 64.3 °F 29.98 in Calm     81% 0.00 in 0 W/m2
00:34 70.3 °F 64.2 °F 29.98 in Calm     81% 0.00 in 0 W/m2
00:39 70.1 °F 64 °F 29.98 in Calm     81% 0.00 in 0 W/m2
00:44 70 °F 64.2 °F 29.98 in Calm     81.8% 0.00 in 0 W/m2
00:49 69.9 °F 64.1 °F 29.98 in Calm     82% 0.00 in 0 W/m2
00:54 69.7 °F 64 °F 29.98 in Calm     82% 0.00 in 0 W/m2
00:59 69.6 °F 63.9 °F 29.98 in Calm     82% 0.00 in 0 W/m2
01:04 69.5 °F 63.8 °F 29.98 in Calm     82% 0.00 in 0 W/m2
01:09 69.5 °F 64 °F 29.98 in Calm     82.9% 0.00 in 0 W/m2
01:14 69.4 °F 64 °F 29.98 in Calm     83% 0.00 in 0 W/m2
01:19 69.4 °F 64 °F 29.98 in Calm     83% 0.00 in 0 W/m2
01:24 69.3 °F 64.3 °F 29.98 in Calm     84% 0.00 in 0 W/m2
01:29 69.2 °F 64.2 °F 29.98 in Calm     84% 0.00 in 0 W/m2
01:34 69.2 °F 64.2 °F 29.98 in Calm     84% 0.00 in 0 W/m2
01:39 69.1 °F 64.2 °F 29.98 in Calm     84.2% 0.00 in 0 W/m2
01:44 69.1 °F 64.4 °F 29.98 in Calm     85% 0.00 in 0 W/m2
01:49 69.1 °F 64.4 °F 29.98 in Calm     85% 0.00 in 0 W/m2
01:54 69.1 °F 64.6 °F 29.97 in Calm     85.7% 0.00 in 0 W/m2
01:59 69.2 °F 64.8 °F 29.97 in Calm     86% 0.00 in 0 W/m2
02:04 69.2 °F 64.8 °F 29.97 in Calm     86% 0.00 in 0 W/m2
02:09 69.2 °F 65.2 °F 29.97 in Calm     86.9% 0.00 in 0 W/m2
02:14 69.3 °F 65.3 °F 29.97 in Calm     87% 0.00 in 0 W/m2
02:19 69.4 °F 65.3 °F 29.96 in Calm     87% 0.00 in 0 W/m2
02:24 69.4 °F 65.4 °F 29.96 in Calm   2 mph 87% 0.00 in 0 W/m2
02:29 69.5 °F 65.5 °F 29.95 in Calm   2 mph 87% 0.00 in 0 W/m2
02:34 69.5 °F 65.5 °F 29.95 in Calm   2 mph 87% 0.00 in 0 W/m2
02:39 69.4 °F 65.4 °F 29.95 in Calm     87% 0.00 in 0 W/m2
02:44 69.4 °F 65.4 °F 29.94 in Calm     87% 0.00 in 0 W/m2
02:49 69.3 °F 65.3 °F 29.94 in Calm     87% 0.00 in 0 W/m2
02:54 69.3 °F 65.6 °F 29.94 in Calm     88% 0.00 in 0 W/m2
02:59 69.3 °F 65.6 °F 29.94 in Calm     88% 0.00 in 0 W/m2
03:04 69.3 °F 65.6 °F 29.94 in Calm     88% 0.00 in 0 W/m2
03:09 69.4 °F 65.7 °F 29.94 in Calm     88% 0.00 in 0 W/m2
03:14 69.4 °F 65.7 °F 29.94 in Calm     88% 0.00 in 0 W/m2
03:19 69.4 °F 65.7 °F 29.94 in Calm     88% 0.00 in 0 W/m2
03:24 69.4 °F 65.9 °F 29.94 in Calm     88.5% 0.00 in 0 W/m2
03:29 69.4 °F 66 °F 29.94 in Calm     89% 0.00 in 0 W/m2
03:34 69.5 °F 66.1 °F 29.94 in Calm     89% 0.00 in 0 W/m2
03:39 69.5 °F 66.1 °F 29.93 in Calm     89% 0.00 in 0 W/m2
03:44 69.5 °F 66.1 °F 29.93 in Calm     89% 0.00 in 0 W/m2
03:49 69.5 °F 66.1 °F 29.93 in Calm     89% 0.00 in 0 W/m2
03:54 69.5 °F 66.2 °F 29.93 in Calm     89% 0.00 in 0 W/m2
03:59 69.6 °F 66.2 °F 29.93 in Calm     89% 0.00 in 0 W/m2
04:09 69.7 °F 66.3 °F 29.93 in Calm     89% 0.00 in 0 W/m2
04:14 69.7 °F 66.3 °F 29.93 in Calm     89% 0.00 in 0 W/m2
04:19 69.8 °F 66.4 °F 29.93 in Calm     89% 0.00 in 0 W/m2
04:24 69.8 °F 66.4 °F 29.92 in Calm     89% 0.00 in 0 W/m2
04:29 69.9 °F 66.5 °F 29.92 in Calm     89% 0.00 in 0 W/m2
04:34 70 °F 66.6 °F 29.92 in Calm     89% 0.00 in 0 W/m2
04:39 70 °F 66.6 °F 29.92 in Calm     89% 0.00 in 0 W/m2
04:44 70.1 °F 66.7 °F 29.92 in Calm     89% 0.00 in 0 W/m2
04:49 70.1 °F 66.7 °F 29.92 in Calm     89% 0.00 in 0 W/m2
04:54 70.2 °F 66.9 °F 29.93 in Calm     89.3% 0.00 in 0 W/m2
04:59 70.2 °F 67.1 °F 29.93 in Calm     90% 0.00 in 0 W/m2
05:04 70.2 °F 67.2 °F 29.93 in South 0.3 mph 4 mph 90% 0.01 in 0 W/m2
05:09 70.3 °F 67.2 °F 29.93 in SW 0.8 mph 6 mph 90% 0.02 in 0 W/m2
05:14 70 °F 67 °F 29.93 in West 1.9 mph 11 mph 90% 0.03 in 0 W/m2
05:19 69.8 °F 66.7 °F 29.93 in WSW 1.8 mph 11 mph 90% 0.03 in 0 W/m2
05:24 69.6 °F 66.5 °F 29.93 in WSW 0.4 mph 11 mph 90% 0.03 in 0 W/m2
05:29 69.4 °F 66.4 °F 29.93 in Calm   11 mph 90% 0.03 in 0 W/m2
05:34 69.3 °F 66.2 °F 29.92 in Calm   11 mph 90% 0.04 in 0 W/m2
05:39 69 °F 66 °F 29.92 in Calm     89.9% 0.04 in 0 W/m2
05:44 68.7 °F 65.3 °F 29.92 in Calm     89% 0.04 in 0 W/m2
05:49 68.4 °F 65 °F 29.92 in Calm     89% 0.04 in 0 W/m2
05:54 68.2 °F 64.8 °F 29.92 in Calm     89% 0.04 in 0 W/m2
05:59 68.1 °F 64.7 °F 29.92 in Calm     89% 0.04 in 5 W/m2
06:04 68.1 °F 64.7 °F 29.92 in Calm     89% 0.04 in 7 W/m2
06:09 68.1 °F 64.7 °F 29.92 in Calm     89% 0.04 in 7 W/m2
06:14 68.1 °F 65 °F 29.92 in Calm     89.9% 0.04 in 5 W/m2
06:19 68 °F 65 °F 29.92 in Calm     90% 0.04 in 7 W/m2
06:24 68 °F 65 °F 29.92 in Calm     90% 0.04 in 11 W/m2
06:29 68 °F 64.9 °F 29.92 in Calm     90% 0.04 in 11 W/m2
06:34 67.9 °F 64.9 °F 29.92 in Calm     90% 0.04 in 7 W/m2
06:39 68 °F 65.1 °F 29.92 in Calm     90.5% 0.01 in 7 W/m2
06:44 68 °F 65.3 °F 29.92 in Calm     91% 0.01 in 5 W/m2
06:49 68 °F 65.3 °F 29.92 in Calm     91% 0.01 in 7 W/m2
06:54 68 °F 65.3 °F 29.92 in Calm     91% 0.01 in 9 W/m2
06:59 68 °F 65.3 °F 29.92 in Calm     91% 0.02 in 12 W/m2
07:04 67.9 °F 65.2 °F 29.92 in Calm     91% 0.02 in 11 W/m2
07:09 67.9 °F 65.5 °F 29.92 in Calm     91.8% 0.01 in 12 W/m2
07:14 68.1 °F 65.7 °F 29.92 in Calm     92% 0.01 in 26 W/m2
07:19 68 °F 65.6 °F 29.92 in Calm     92% 0.01 in 26 W/m2
07:24 67.9 °F 65.5 °F 29.92 in SW 0.1 mph 4 mph 92% 0.01 in 14 W/m2
07:29 67.9 °F 65.5 °F 29.92 in Calm   4 mph 92% 0.02 in 12 W/m2
07:34 67.9 °F 65.5 °F 29.92 in Calm   4 mph 92% 0.02 in 16 W/m2
07:39 67.8 °F 65.4 °F 29.92 in WSW 0.2 mph 3 mph 92% 0.02 in 18 W/m2
07:44 67.7 °F 65.3 °F 29.92 in Calm   3 mph 92% 0.02 in 16 W/m2
07:49 67.7 °F 65.1 °F 29.92 in Calm   3 mph 91.4% 0.02 in 23 W/m2
07:54 67.6 °F 64.9 °F 29.92 in Calm   3 mph 91.1% 0.02 in 21 W/m2
07:59 67.5 °F 64.8 °F 29.91 in WSW 0.2 mph 3 mph 91% 0.02 in 28 W/m2
08:09 67.3 °F 64.6 °F 29.91 in SW 0.1 mph 3 mph 91% 0.02 in 33 W/m2
08:14 67.4 °F 64.7 °F 29.91 in Calm   3 mph 91% 0.02 in 35 W/m2
08:19 67.4 °F 64.7 °F 29.91 in Calm   3 mph 91% 0.02 in 42 W/m2
08:24 67.4 °F 64.7 °F 29.91 in Calm   3 mph 91% 0.02 in 42 W/m2
08:29 67.4 °F 64.9 °F 29.91 in Calm   3 mph 91.6% 0.02 in 33 W/m2
08:34 67.5 °F 65.1 °F 29.91 in Calm   3 mph 92% 0.02 in 26 W/m2
08:39 67.5 °F 65.1 °F 29.91 in WSW 0.1 mph 3 mph 92% 0.01 in 40 W/m2
08:44 67.5 °F 65.1 °F 29.91 in WSW 0.1 mph 3 mph 92% 0.01 in 40 W/m2
08:49 67.5 °F 65.1 °F 29.91 in Calm   3 mph 92% 0.01 in 47 W/m2
08:54 67.6 °F 65.2 °F 29.91 in SW 0.1 mph 3 mph 92% 0.01 in 49 W/m2
08:59 67.6 °F 65.2 °F 29.91 in SSW 1.1 mph 7 mph 92% 0.01 in 30 W/m2
09:04 67.7 °F 65.3 °F 29.91 in SSW 1.1 mph 7 mph 92% 0.01 in 23 W/m2
09:09 67.8 °F 65.4 °F 29.91 in SSE 0.3 mph 4 mph 92% 0.02 in 35 W/m2
09:14 67.7 °F 65.3 °F 29.90 in SW 0.8 mph 6 mph 92% 0.02 in 42 W/m2
09:19 67.7 °F 65.1 °F 29.91 in SW 0.9 mph 6 mph 91.3% 0.02 in 23 W/m2
09:24 67.7 °F 65.2 °F 29.91 in SW 0.6 mph 6 mph 91.6% 0.02 in 28 W/m2
09:29 67.6 °F 64.9 °F 29.90 in SSW 0.8 mph 6 mph 91.1% 0.03 in 28 W/m2
09:34 67.6 °F 64.9 °F 29.90 in SSW 0.8 mph 8 mph 91% 0.04 in 40 W/m2
09:39 67.6 °F 65 °F 29.90 in Calm   8 mph 91.4% 0.04 in 49 W/m2
09:44 67.5 °F 65.1 °F 29.90 in WSW 0.5 mph 8 mph 92% 0.04 in 49 W/m2
09:49 67.5 °F 65.1 °F 29.90 in South 1.1 mph 8 mph 92% 0.04 in 141 W/m2
09:54 67.5 °F 65.1 °F 29.89 in SSW 1.1 mph 8 mph 92% 0.04 in 130 W/m2
09:59 67.6 °F 65.2 °F 29.89 in SSW 1.5 mph 8 mph 92% 0.04 in 88 W/m2
10:04 67.6 °F 65.2 °F 29.89 in SSW 0.9 mph 8 mph 92% 0.04 in 102 W/m2
10:09 67.7 °F 65.3 °F 29.89 in SW 1 mph 5 mph 92% 0.03 in 114 W/m2
10:14 68 °F 65.6 °F 29.89 in SW 0.9 mph 5 mph 92% 0.03 in 230 W/m2
10:19 68.3 °F 65.9 °F 29.89 in South 1.1 mph 5 mph 92.1% 0.03 in 274 W/m2
10:24 68.6 °F 66.2 °F 29.90 in South 1.2 mph 6 mph 92% 0.03 in 181 W/m2
10:29 68.9 °F 66.3 °F 29.90 in SW 1.3 mph 6 mph 91.5% 0.03 in 156 W/m2
10:34 69.1 °F 66.3 °F 29.91 in SW 0.2 mph 6 mph 91% 0.03 in 79 W/m2
10:39 69.2 °F 66.3 °F 29.90 in SW 0.6 mph 3 mph 90.4% 0.01 in 83 W/m2
10:44 69.2 °F 66.1 °F 29.90 in SW 0.1 mph 3 mph 90% 0.01 in 77 W/m2
10:49 69.2 °F 66.2 °F 29.91 in SW 0.3 mph 4 mph 90% 0.01 in 77 W/m2
10:54 69.3 °F 66.3 °F 29.91 in SW 0.1 mph 4 mph 90% 0.01 in 60 W/m2
10:59 69.3 °F 66.3 °F 29.91 in Calm   4 mph 90% 0.01 in 56 W/m2
11:04 69.3 °F 65.9 °F 29.91 in Calm   4 mph 89.2% 0.01 in 70 W/m2
11:09 69.2 °F 66 °F 29.91 in SW 0.1 mph 2 mph 89.5% 0.00 in 72 W/m2
11:14 69.1 °F 65.8 °F 29.90 in Calm   2 mph 89% 0.00 in 69 W/m2
11:19 69.1 °F 65.7 °F 29.90 in Calm   2 mph 89% 0.00 in 76 W/m2
11:24 69.1 °F 65.8 °F 29.90 in Calm   2 mph 89% 0.00 in 79 W/m2
11:29 69.3 °F 66.1 °F 29.90 in SW 0.1 mph 2 mph 89.7% 0.00 in 67 W/m2
11:34 69.3 °F 66 °F 29.90 in Calm   2 mph 89% 0.00 in 65 W/m2
11:39 69.4 °F 66 °F 29.90 in Calm   1 mph 89% 0.00 in 58 W/m2
11:44 69.5 °F 66.1 °F 29.90 in SW 0.1 mph 4 mph 89% 0.00 in 58 W/m2
11:49 69.5 °F 66.1 °F 29.90 in Calm   4 mph 89% 0.00 in 53 W/m2
11:54 69.6 °F 66.2 °F 29.90 in Calm   4 mph 89% 0.00 in 40 W/m2
11:59 69.7 °F 66.3 °F 29.90 in Calm   4 mph 89% 0.00 in 47 W/m2
12:00 69.7 °F 66.3 °F 29.89 in Calm   4 mph 89% 0.00 in 44 W/m2
12:09 69.7 °F 66.4 °F 29.89 in SW 0.2 mph 3 mph 89% 0.00 in 54 W/m2
12:14 69.8 °F 66.4 °F 29.89 in Calm   3 mph 89% 0.00 in 69 W/m2
12:19 69.9 °F 66.5 °F 29.89 in SSW 0.5 mph 5 mph 89% 0.00 in 128 W/m2
12:24 70 °F 66.6 °F 29.88 in SSW 0.1 mph 5 mph 89% 0.00 in 193 W/m2
12:29 70.2 °F 66.9 °F 29.88 in South 0.1 mph 5 mph 89% 0.00 in 160 W/m2
12:34 70.5 °F 67.2 °F 29.88 in Calm   5 mph 89.1% 0.00 in 207 W/m2
12:39 70.8 °F 67.4 °F 29.88 in SSW 0.7 mph 3 mph 89% 0.00 in 207 W/m2
12:44 71 °F 67.3 °F 29.88 in Calm   3 mph 88% 0.00 in 195 W/m2
12:49 71.3 °F 67.5 °F 29.88 in Calm   3 mph 88% 0.00 in 183 W/m2
12:54 71.5 °F 67.8 °F 29.87 in SSW 0.1 mph 4 mph 88% 0.00 in 156 W/m2
12:59 71.7 °F 68 °F 29.88 in SSW 0.1 mph 4 mph 88% 0.00 in 190 W/m2
13:04 71.9 °F 68.2 °F 29.88 in SSW 0.3 mph 4 mph 88% 0.00 in 223 W/m2
13:09 72.1 °F 68.2 °F 29.87 in Calm   4 mph 87.7% 0.00 in 223 W/m2
13:14 72.4 °F 68.3 °F 29.87 in SW 0.2 mph 4 mph 87.1% 0.00 in 281 W/m2
13:19 72.6 °F 68.6 °F 29.87 in SSW 0.1 mph 4 mph 87% 0.00 in 230 W/m2
13:24 72.9 °F 68.7 °F 29.86 in South 0.7 mph 6 mph 86.8% 0.00 in 267 W/m2
13:29 73.1 °F 68.8 °F 29.86 in SW 0.2 mph 6 mph 86.4% 0.00 in 299 W/m2
13:34 73.3 °F 69.2 °F 29.86 in WSW 1.1 mph 9 mph 86.9% 0.00 in 204 W/m2
13:39 73.5 °F 69 °F 29.86 in South 1.3 mph 10 mph 86% 0.00 in 202 W/m2
13:44 73.5 °F 69 °F 29.86 in South 0.1 mph 10 mph 85.7% 0.00 in 325 W/m2
13:49 73.7 °F 69.3 °F 29.86 in South 0.4 mph 10 mph 86.2% 0.00 in 313 W/m2
13:54 73.9 °F 69.5 °F 29.86 in SW 0.4 mph 10 mph 86.2% 0.00 in 248 W/m2
13:59 74 °F 69.6 °F 29.86 in Calm   10 mph 86% 0.00 in 195 W/m2
14:04 74.1 °F 69.7 °F 29.86 in South 0.4 mph 10 mph 86% 0.00 in 165 W/m2
14:09 74.2 °F 69.7 °F 29.86 in South 0.1 mph 2 mph 86% 0.00 in 128 W/m2
14:14 74.3 °F 70 °F 29.86 in SW 1 mph 6 mph 86.3% 0.00 in 151 W/m2
14:19 74.4 °F 70 °F 29.86 in SW 0.9 mph 6 mph 86% 0.00 in 160 W/m2
14:24 74.5 °F 70.1 °F 29.86 in WSW 0.6 mph 7 mph 86% 0.00 in 160 W/m2
14:29 74.6 °F 70.3 °F 29.86 in Calm   7 mph 86.4% 0.00 in 172 W/m2
14:34 74.8 °F 70.6 °F 29.85 in SW 0.5 mph 7 mph 86.7% 0.00 in 172 W/m2
14:39 74.9 °F 70.6 °F 29.85 in SW 0.8 mph 6 mph 86.6% 0.00 in 128 W/m2
14:44 75 °F 70.5 °F 29.85 in SSW 0.7 mph 6 mph 86% 0.00 in 137 W/m2
14:49 75 °F 70.6 °F 29.85 in SW 0.5 mph 6 mph 86% 0.00 in 178 W/m2
14:54 75.1 °F 70.7 °F 29.85 in WSW 0.9 mph 6 mph 86% 0.00 in 197 W/m2
14:59 75.3 °F 70.8 °F 29.85 in West 0.1 mph 6 mph 86% 0.00 in 178 W/m2
15:04 75.3 °F 70.9 °F 29.85 in West 0.3 mph 6 mph 86% 0.00 in 260 W/m2
15:09 75.6 °F 71.3 °F 29.85 in West 0.1 mph 4 mph 86.6% 0.00 in 315 W/m2
15:14 75.9 °F 71.7 °F 29.84 in West 0.4 mph 6 mph 86.8% 0.00 in 411 W/m2
15:19 76.4 °F 72 °F 29.84 in WSW 0.3 mph 6 mph 86.3% 0.00 in 411 W/m2
15:24 76.9 °F 72.1 °F 29.84 in WSW 0.1 mph 6 mph 85.3% 0.00 in 378 W/m2
15:29 77.2 °F 71.7 °F 29.84 in SW 0.3 mph 6 mph 83.2% 0.00 in 378 W/m2
15:34 77.3 °F 71.5 °F 29.84 in SW 0.2 mph 6 mph 82.4% 0.00 in 316 W/m2
15:39 77.4 °F 71.4 °F 29.84 in Calm   3 mph 82% 0.00 in 325 W/m2
15:44 77.5 °F 71.7 °F 29.84 in SW 0.1 mph 3 mph 82.4% 0.00 in 207 W/m2
15:49 77.6 °F 71.7 °F 29.84 in Calm   3 mph 82.3% 0.00 in 158 W/m2
15:54 77.6 °F 71.8 °F 29.83 in Calm   3 mph 82.4% 0.00 in 91 W/m2
15:59 77.6 °F 71.9 °F 29.83 in Calm   3 mph 82.6% 0.00 in 90 W/m2
16:00 77.6 °F 72 °F 29.83 in Calm   3 mph 83% 0.00 in 88 W/m2
16:09 77.6 °F 71.9 °F 29.83 in Calm     82.7% 0.00 in 130 W/m2
16:14 77.5 °F 71.6 °F 29.83 in Calm     82% 0.00 in 200 W/m2
16:19 77.6 °F 71.9 °F 29.83 in Calm   2 mph 82.6% 0.00 in 255 W/m2
16:24 77.8 °F 71.9 °F 29.83 in SW 0.1 mph 2 mph 82.1% 0.00 in 206 W/m2
16:29 78 °F 72.1 °F 29.83 in SW 0.1 mph 2 mph 82% 0.00 in 179 W/m2
16:34 78.3 °F 72.2 °F 29.83 in SW 0.5 mph 6 mph 81.6% 0.00 in 257 W/m2
16:39 78.6 °F 72.3 °F 29.83 in SW 0.4 mph 6 mph 81% 0.00 in 264 W/m2
16:44 79 °F 72.5 °F 29.83 in SW 0.2 mph 6 mph 80.5% 0.00 in 244 W/m2
16:49 79.3 °F 72.6 °F 29.83 in SW 0.6 mph 6 mph 80% 0.00 in 221 W/m2
16:54 79.5 °F 72.8 °F 29.82 in SW 0.1 mph 6 mph 80% 0.00 in 190 W/m2
16:59 79.6 °F 72.9 °F 29.82 in Calm   6 mph 80% 0.00 in 190 W/m2
17:04 79.6 °F 72.9 °F 29.82 in Calm   6 mph 80% 0.00 in 181 W/m2
17:09 79.6 °F 72.6 °F 29.82 in Calm   1 mph 79.3% 0.00 in 165 W/m2
17:14 79.5 °F 72.4 °F 29.82 in Calm   1 mph 79% 0.00 in 190 W/m2
17:19 79.5 °F 72.6 °F 29.81 in Calm   1 mph 79.6% 0.00 in 104 W/m2
17:24 79.5 °F 72.7 °F 29.81 in Calm   1 mph 79.9% 0.00 in 130 W/m2
17:29 79.5 °F 72.4 °F 29.81 in SW 0.1 mph 2 mph 79% 0.00 in 156 W/m2
17:34 79.6 °F 72.2 °F 29.81 in Calm   2 mph 78.2% 0.00 in 158 W/m2
17:39 79.7 °F 72.2 °F 29.81 in SW 0.1 mph 3 mph 78% 0.00 in 111 W/m2
17:44 79.8 °F 72.6 °F 29.81 in Calm   3 mph 78.9% 0.00 in 111 W/m2
17:49 79.7 °F 72.3 °F 29.81 in Calm   3 mph 78% 0.00 in 118 W/m2
17:54 79.6 °F 72.5 °F 29.81 in Calm   3 mph 78.8% 0.00 in 93 W/m2
17:59 79.6 °F 72.5 °F 29.81 in Calm   3 mph 79% 0.00 in 105 W/m2
18:04 79.5 °F 72.4 °F 29.80 in Calm   3 mph 79% 0.00 in 69 W/m2
18:09 79.5 °F 72.5 °F 29.80 in Calm   1 mph 79.3% 0.00 in 60 W/m2
18:14 79.4 °F 72.7 °F 29.80 in Calm   1 mph 80% 0.00 in 56 W/m2
18:19 79.4 °F 72.7 °F 29.81 in Calm   1 mph 80% 0.00 in 51 W/m2
18:24 79.4 °F 72.7 °F 29.81 in SW 0.1 mph 3 mph 80% 0.00 in 46 W/m2
18:29 79.2 °F 72.5 °F 29.80 in Calm   3 mph 80% 0.00 in 44 W/m2
18:34 79.2 °F 72.7 °F 29.80 in SW 0.1 mph 3 mph 80.8% 0.00 in 42 W/m2
18:39 79.1 °F 72.6 °F 29.80 in Calm   3 mph 80.5% 0.00 in 39 W/m2
18:44 79.1 °F 72.7 °F 29.80 in Calm   3 mph 81% 0.00 in 35 W/m2
18:49 79 °F 72.7 °F 29.80 in Calm   3 mph 81% 0.00 in 35 W/m2
18:54 78.9 °F 72.6 °F 29.80 in Calm   3 mph 81% 0.00 in 33 W/m2
18:59 78.9 °F 72.6 °F 29.80 in SW 0.1 mph 3 mph 81% 0.00 in 33 W/m2
19:04 78.8 °F 72.5 °F 29.80 in Calm   3 mph 81% 0.00 in 32 W/m2
19:09 78.8 °F 72.5 °F 29.80 in Calm     81% 0.00 in 28 W/m2
19:14 78.7 °F 72.4 °F 29.79 in Calm     81% 0.00 in 26 W/m2
19:19 78.7 °F 72.4 °F 29.80 in Calm     81.1% 0.00 in 23 W/m2
19:24 78.6 °F 72.6 °F 29.80 in Calm     82% 0.00 in 21 W/m2
19:29 78.5 °F 72.5 °F 29.81 in Calm     82% 0.00 in 19 W/m2
19:34 78.4 °F 72.4 °F 29.81 in Calm     82% 0.00 in 18 W/m2
19:39 78.2 °F 72.3 °F 29.80 in Calm     82% 0.00 in 16 W/m2
19:44 78.1 °F 72.2 °F 29.80 in Calm     82% 0.00 in 12 W/m2
19:49 78 °F 72.3 °F 29.81 in Calm     82.9% 0.00 in 11 W/m2
19:54 77.8 °F 72.2 °F 29.82 in Calm     83% 0.00 in 9 W/m2
19:59 77.7 °F 72.1 °F 29.82 in Calm     83% 0.00 in 7 W/m2
20:00 77.6 °F 72 °F 29.82 in Calm     83% 0.00 in 5 W/m2
20:09 77.3 °F 72.1 °F 29.82 in Calm   1 mph 84% 0.00 in 0 W/m2
20:14 77.2 °F 72 °F 29.82 in Calm   1 mph 84% 0.00 in 0 W/m2
20:19 77 °F 72 °F 29.82 in Calm   1 mph 84.5% 0.00 in 0 W/m2
20:24 76.9 °F 72 °F 29.82 in Calm   1 mph 85% 0.00 in 0 W/m2
20:29 76.7 °F 71.9 °F 29.82 in Calm   1 mph 85% 0.00 in 0 W/m2
20:34 76.6 °F 71.9 °F 29.82 in Calm   1 mph 85.4% 0.00 in 0 W/m2
20:39 76.4 °F 71.9 °F 29.82 in Calm     86% 0.00 in 0 W/m2
20:44 76.3 °F 71.8 °F 29.82 in Calm     86% 0.00 in 0 W/m2
20:49 76.1 °F 71.6 °F 29.82 in Calm     86% 0.00 in 0 W/m2
20:54 76 °F 71.6 °F 29.82 in Calm     86.4% 0.00 in 0 W/m2
20:59 75.8 °F 71.7 °F 29.83 in Calm     87% 0.00 in 0 W/m2
21:04 75.7 °F 71.6 °F 29.82 in Calm     87% 0.00 in 0 W/m2
21:09 75.6 °F 71.5 °F 29.82 in Calm     87% 0.00 in 0 W/m2
21:14 75.5 °F 71.6 °F 29.83 in Calm     87.7% 0.00 in 0 W/m2
21:19 75.4 °F 71.3 °F 29.83 in Calm     87.3% 0.00 in 0 W/m2
21:24 75.3 °F 71.5 °F 29.83 in Calm     88% 0.00 in 0 W/m2
21:29 75.1 °F 71.3 °F 29.83 in Calm     88% 0.00 in 0 W/m2
21:34 75 °F 71.2 °F 29.83 in Calm     88% 0.00 in 0 W/m2
21:39 74.9 °F 71.1 °F 29.83 in Calm     88.2% 0.00 in 0 W/m2
21:44 74.7 °F 71.2 °F 29.84 in Calm     88.8% 0.00 in 0 W/m2
21:49 74.6 °F 71.2 °F 29.83 in Calm     89% 0.00 in 0 W/m2
21:54 74.5 °F 71 °F 29.83 in Calm     89% 0.00 in 0 W/m2
21:59 74.4 °F 70.9 °F 29.83 in Calm     89% 0.00 in 0 W/m2
22:04 74.3 °F 71.1 °F 29.83 in Calm     89.6% 0.00 in 0 W/m2
22:09 74.3 °F 71.1 °F 29.83 in Calm     90% 0.00 in 0 W/m2
22:14 74.2 °F 71.1 °F 29.83 in Calm     90% 0.00 in 0 W/m2
22:19 74.1 °F 71 °F 29.83 in Calm     90% 0.00 in 0 W/m2
22:24 74.1 °F 70.9 °F 29.82 in Calm     90% 0.00 in 0 W/m2
22:29 74 °F 70.9 °F 29.82 in Calm     90% 0.00 in 0 W/m2
22:34 74 °F 70.8 °F 29.82 in Calm     90% 0.00 in 0 W/m2
22:39 73.9 °F 70.8 °F 29.83 in Calm     90% 0.00 in 0 W/m2
22:44 73.8 °F 70.7 °F 29.83 in Calm     90% 0.00 in 0 W/m2
22:49 73.7 °F 70.6 °F 29.83 in Calm     90% 0.00 in 0 W/m2
22:54 73.7 °F 70.8 °F 29.83 in Calm     90.9% 0.00 in 0 W/m2
22:59 73.5 °F 70.7 °F 29.83 in Calm     91% 0.00 in 0 W/m2
23:04 73.4 °F 70.7 °F 29.83 in Calm     91% 0.00 in 0 W/m2
23:09 73.3 °F 70.3 °F 29.83 in Calm     90.2% 0.00 in 0 W/m2
23:14 73.2 °F 70.4 °F 29.83 in Calm     90.9% 0.00 in 0 W/m2
23:19 73.1 °F 70.3 °F 29.83 in Calm     91% 0.00 in 0 W/m2
23:24 73 °F 70.2 °F 29.83 in Calm     91% 0.00 in 0 W/m2
23:29 72.9 °F 70.1 °F 29.83 in Calm     91% 0.00 in 0 W/m2
23:34 72.8 °F 70 °F 29.84 in Calm     91% 0.00 in 0 W/m2
23:39 72.7 °F 70 °F 29.83 in Calm     91.1% 0.00 in 0 W/m2
23:44 72.6 °F 69.9 °F 29.83 in Calm     91.2% 0.00 in 0 W/m2
23:49 72.6 °F 70.1 °F 29.83 in Calm     92% 0.00 in 0 W/m2
23:54 72.5 °F 70.1 °F 29.83 in Calm     92% 0.00 in 0 W/m2
23:59 72.5 °F 70 °F 29.83 in Calm     92% 0.00 in 0 W/m2
Hartford County Weather
Compliments of Weather Underground - 4 mb